Tallinn, Estonia
Current Conditions -  °F | °C
As of 2:20 PM on Wednesday 22 Oct 2014 (Local Time) from EETN Reporting Station
Few Clouds Few Clouds  
Wind Chill: 24°   Ceiling: Unl
Heat Index: 34°   Visibility: 6mi
Dew Point: 21°   Wind: 15mph
Humidity: 60%   Direction: 110°ESE
Pressure: 30.18"   Gusts: NA
Location:  59.44°N, 24.74°E
Report Text: EETN 221220Z 11013KT 9999 FEW034 01/M06 Q1022 NOSIG
Loading
Personal Weather Stations






























Interactive Weather Map
Tropical Storm Tracking
New forecast layout! Learn more

10-Day Weather Forecast

Advertisements
Track Severe Weather on mobile